Main page
METAR-TAF:

METAR-TAF

Airports :

Granite Falls Municipal Airport (Lenzen-Roe Memorial Field)

Granite Falls, Minnesota, United States

latitude: 44-45-11N, longitude: 095-33-21W, elevation: 1046 ft

Current weather observation

The report was made 23 minutes ago, at 21:55 UTC
Wind 13 mph from the South
Temperature 21°F
Humidity 73%
Pressure 30.61 in. Hg
Visibility: 5 miles
Clear sky
haze

METAR: KGDB 202155Z AUTO 17011KT 5SM HZ CLR M06/M10 A3061 RMK AO2 T10601103

Time: 16:18 (22:18 UTC)


TAF: missing

Weather observations and forecasts of more than 4000 airports (METAR and TAF reports).

The available stations are represented by yellow and red dots on the map.

Hover mouse over dot to see the name of the station.

Then click to see weather observations and forecasts.

To change the map : click on the green buttons with a black cross to zoom in, on the green button with a dash to zoom out, or on the green arrows for adjacent maps.


METAR-TAF: